createdAt,value
2023-01-17T00:00:56.158Z,4.71
2023-01-17T00:01:56.128Z,4.71
2023-01-17T00:02:56.143Z,4.72
2023-01-17T00:03:56.134Z,4.72
2023-01-17T00:04:56.114Z,4.69
2023-01-17T00:05:56.105Z,4.69
2023-01-17T00:06:56.108Z,4.68
2023-01-17T00:07:56.090Z,4.65
2023-01-17T00:08:56.137Z,4.64
2023-01-17T00:09:56.096Z,4.64
2023-01-17T00:10:56.033Z,4.65
2023-01-17T00:11:56.005Z,4.64
2023-01-17T00:12:56.008Z,4.65
2023-01-17T00:13:55.983Z,4.62
2023-01-17T00:14:55.976Z,4.62
2023-01-17T00:15:55.975Z,4.64
2023-01-17T00:16:55.946Z,4.62
2023-01-17T00:17:55.986Z,4.59
2023-01-17T00:18:55.953Z,4.59
2023-01-17T00:19:55.936Z,4.57
2023-01-17T00:20:55.926Z,4.57
2023-01-17T00:21:55.850Z,4.56
2023-01-17T00:22:55.871Z,4.56
2023-01-17T00:23:55.857Z,4.54
2023-01-17T00:24:55.845Z,4.54
2023-01-17T00:25:55.874Z,4.54
2023-01-17T00:26:55.842Z,4.54
2023-01-17T00:27:55.842Z,4.53
2023-01-17T00:28:55.802Z,4.51
2023-01-17T00:29:55.779Z,4.50
2023-01-17T00:30:55.800Z,4.49
2023-01-17T00:31:55.845Z,4.46
2023-01-17T00:32:55.767Z,4.44
2023-01-17T00:33:55.730Z,4.42
2023-01-17T00:34:55.790Z,4.39
2023-01-17T00:35:55.720Z,4.42
2023-01-17T00:36:55.705Z,4.36
2023-01-17T00:37:55.681Z,4.35
2023-01-17T00:38:55.684Z,4.34
2023-01-17T00:39:55.657Z,4.31
2023-01-17T00:40:55.667Z,4.28
2023-01-17T00:41:55.629Z,4.31
2023-01-17T00:42:55.646Z,4.26
2023-01-17T00:43:55.704Z,4.26
2023-01-17T00:44:55.622Z,4.26
2023-01-17T00:45:55.607Z,4.20
2023-01-17T00:46:55.680Z,4.21
2023-01-17T00:47:56.925Z,4.18
2023-01-17T00:48:55.560Z,4.17
2023-01-17T00:49:55.564Z,4.17
2023-01-17T00:50:55.533Z,4.14
2023-01-17T00:51:55.517Z,4.13
2023-01-17T00:52:55.559Z,4.11
2023-01-17T00:53:55.531Z,4.11
2023-01-17T00:54:55.505Z,4.11
2023-01-17T00:55:55.478Z,4.10
2023-01-17T00:56:55.559Z,4.10
2023-01-17T00:57:55.440Z,4.08
2023-01-17T00:58:55.447Z,4.08
2023-01-17T00:59:55.400Z,4.11
2023-01-17T01:00:55.450Z,4.10
2023-01-17T01:01:55.591Z,4.11
2023-01-17T01:02:55.386Z,4.10
2023-01-17T01:03:55.400Z,4.10
2023-01-17T01:04:55.359Z,4.08
2023-01-17T01:05:55.322Z,4.10
2023-01-17T01:06:55.358Z,4.08
2023-01-17T01:07:55.308Z,4.08
2023-01-17T01:08:55.301Z,4.07
2023-01-17T01:09:55.287Z,4.08
2023-01-17T01:10:55.367Z,4.07
2023-01-17T01:11:55.311Z,4.07
2023-01-17T01:12:55.243Z,4.06
2023-01-17T01:13:55.228Z,4.08
2023-01-17T01:14:55.226Z,4.08
2023-01-17T01:15:55.228Z,4.08
2023-01-17T01:16:55.241Z,4.08
2023-01-17T01:17:55.199Z,4.07
2023-01-17T01:18:55.213Z,4.08
2023-01-17T01:19:55.163Z,4.07
2023-01-17T01:20:55.146Z,4.10
2023-01-17T01:21:55.119Z,4.08
2023-01-17T01:22:55.167Z,4.06
2023-01-17T01:23:55.104Z,4.08
2023-01-17T01:24:55.083Z,4.07
2023-01-17T01:25:55.070Z,4.07
2023-01-17T01:26:55.064Z,4.07
2023-01-17T01:27:55.056Z,4.06
2023-01-17T01:28:55.046Z,4.04
2023-01-17T01:29:55.027Z,4.02
2023-01-17T01:30:55.066Z,4.02
2023-01-17T01:31:55.020Z,4.02
2023-01-17T01:32:54.992Z,4.04
2023-01-17T01:33:54.950Z,4.02
2023-01-17T01:34:54.974Z,4.04
2023-01-17T01:35:55.005Z,4.06
2023-01-17T01:36:55.039Z,4.06
2023-01-17T01:37:54.922Z,4.07
2023-01-17T01:38:55.231Z,4.08
2023-01-17T01:39:54.890Z,4.11
2023-01-17T01:40:54.910Z,4.10
2023-01-17T01:41:54.892Z,4.10
2023-01-17T01:42:54.864Z,4.11
2023-01-17T01:43:54.844Z,4.13
2023-01-17T01:44:54.849Z,4.14
2023-01-17T01:45:54.864Z,4.14
2023-01-17T01:46:54.875Z,4.14
2023-01-17T01:47:54.801Z,4.13
2023-01-17T01:48:54.816Z,4.14
2023-01-17T01:49:54.797Z,4.13
2023-01-17T01:50:54.809Z,4.14
2023-01-17T01:51:54.742Z,4.14
2023-01-17T01:52:54.827Z,4.14
2023-01-17T01:53:54.749Z,4.14
2023-01-17T01:54:54.708Z,4.13
2023-01-17T01:55:54.842Z,4.14
2023-01-17T01:56:54.750Z,4.14
2023-01-17T01:57:54.689Z,4.13
2023-01-17T01:58:54.656Z,4.16
2023-01-17T01:59:54.767Z,4.17
2023-01-17T02:00:55.689Z,4.16
2023-01-17T02:01:54.786Z,4.16
2023-01-17T02:02:54.642Z,4.17
2023-01-17T02:03:54.678Z,4.16
2023-01-17T02:04:54.615Z,4.16
2023-01-17T02:05:54.572Z,4.17
2023-01-17T02:06:54.674Z,4.17
2023-01-17T02:07:54.521Z,4.18
2023-01-17T02:08:54.513Z,4.17
2023-01-17T02:09:54.522Z,4.17
2023-01-17T02:10:54.557Z,4.18
2023-01-17T02:11:54.534Z,4.16
2023-01-17T02:12:54.522Z,4.17
2023-01-17T02:13:54.466Z,4.17
2023-01-17T02:14:54.481Z,4.16
2023-01-17T02:15:54.437Z,4.16
2023-01-17T02:16:54.475Z,4.18
2023-01-17T02:17:54.425Z,4.17
2023-01-17T02:18:54.417Z,4.16
2023-01-17T02:19:54.375Z,4.14
2023-01-17T02:20:54.403Z,4.11
2023-01-17T02:21:54.357Z,4.13
2023-01-17T02:22:54.418Z,4.13
2023-01-17T02:23:54.367Z,4.13
2023-01-17T02:24:54.319Z,4.13
2023-01-17T02:25:54.312Z,4.14
2023-01-17T02:26:54.310Z,4.14
2023-01-17T02:27:54.277Z,4.18
2023-01-17T02:28:54.277Z,4.20
2023-01-17T02:29:54.289Z,4.18
2023-01-17T02:30:54.265Z,4.24
2023-01-17T02:31:54.347Z,4.25
2023-01-17T02:32:54.239Z,4.26
2023-01-17T02:33:54.225Z,4.28
2023-01-17T02:34:54.231Z,4.31
2023-01-17T02:35:54.213Z,4.31
2023-01-17T02:36:54.205Z,4.32
2023-01-17T02:37:54.134Z,4.34
2023-01-17T02:38:54.139Z,4.35
2023-01-17T02:39:54.111Z,4.38
2023-01-17T02:40:54.116Z,4.39
2023-01-17T02:41:54.135Z,4.42
2023-01-17T02:42:54.088Z,4.44
2023-01-17T02:43:54.105Z,4.44
2023-01-17T02:44:54.085Z,4.46
2023-01-17T02:45:54.132Z,4.44
2023-01-17T02:46:54.055Z,4.46
2023-01-17T02:47:54.031Z,4.44
2023-01-17T02:48:54.014Z,4.44
2023-01-17T02:49:53.982Z,4.46
2023-01-17T02:50:53.982Z,4.46
2023-01-17T02:51:53.989Z,4.49
2023-01-17T02:52:53.962Z,4.49
2023-01-17T02:53:53.940Z,4.50
2023-01-17T02:54:53.938Z,4.51
2023-01-17T02:55:53.930Z,4.50
2023-01-17T02:56:53.936Z,4.50
2023-01-17T02:57:53.891Z,4.51
2023-01-17T02:58:53.898Z,4.53
2023-01-17T02:59:53.875Z,4.54
2023-01-17T03:00:53.969Z,4.57
2023-01-17T03:01:54.164Z,4.59
2023-01-17T03:02:53.952Z,4.59
2023-01-17T03:03:53.838Z,4.61
2023-01-17T03:04:53.843Z,4.59
2023-01-17T03:05:53.806Z,4.61
2023-01-17T03:06:53.868Z,4.61
2023-01-17T03:07:53.783Z,4.64
2023-01-17T03:08:53.766Z,4.64
2023-01-17T03:09:53.743Z,4.62
2023-01-17T03:10:53.739Z,4.62
2023-01-17T03:11:53.734Z,4.59
2023-01-17T03:12:53.719Z,4.62
2023-01-17T03:13:53.704Z,4.61
2023-01-17T03:14:53.697Z,4.61
2023-01-17T03:15:53.684Z,4.62
2023-01-17T03:16:53.716Z,4.62
2023-01-17T03:17:53.631Z,4.61
2023-01-17T03:18:53.636Z,4.61
2023-01-17T03:19:53.607Z,4.61
2023-01-17T03:20:53.603Z,4.59
2023-01-17T03:21:53.609Z,4.61
2023-01-17T03:22:53.596Z,4.61
2023-01-17T03:23:53.555Z,4.61
2023-01-17T03:24:53.578Z,4.61
2023-01-17T03:25:53.558Z,4.64
2023-01-17T03:26:53.542Z,4.64
2023-01-17T03:27:53.526Z,4.64
2023-01-17T03:28:53.525Z,4.64
2023-01-17T03:29:53.494Z,4.64
2023-01-17T03:30:53.517Z,4.62
2023-01-17T03:31:53.487Z,4.65
2023-01-17T03:32:53.456Z,4.65
2023-01-17T03:33:53.450Z,4.67
2023-01-17T03:34:53.446Z,4.67
2023-01-17T03:35:53.428Z,4.69
2023-01-17T03:36:53.409Z,4.72
2023-01-17T03:37:53.432Z,4.71
2023-01-17T03:38:53.384Z,4.72
2023-01-17T03:39:53.428Z,4.71
2023-01-17T03:40:53.384Z,4.74
2023-01-17T03:41:53.369Z,4.75
2023-01-17T03:42:53.337Z,4.77
2023-01-17T03:43:53.366Z,4.79
2023-01-17T03:44:53.302Z,4.80
2023-01-17T03:45:53.355Z,4.79
2023-01-17T03:46:53.304Z,4.79
2023-01-17T03:47:53.296Z,4.79
2023-01-17T03:48:53.282Z,4.84
2023-01-17T03:49:53.271Z,4.84
2023-01-17T03:50:53.216Z,4.84
2023-01-17T03:51:53.310Z,4.86
2023-01-17T03:52:53.218Z,4.87
2023-01-17T03:53:53.207Z,4.90
2023-01-17T03:54:53.188Z,4.90
2023-01-17T03:55:53.247Z,4.91
2023-01-17T03:56:53.170Z,4.93
2023-01-17T03:57:53.184Z,4.93
2023-01-17T03:58:53.142Z,4.91
2023-01-17T03:59:53.111Z,4.93
2023-01-17T04:00:53.205Z,4.94
2023-01-17T04:01:53.137Z,4.91
2023-01-17T04:02:53.302Z,4.93
2023-01-17T04:03:53.196Z,4.91
2023-01-17T04:04:53.058Z,4.91
2023-01-17T04:05:53.062Z,4.91
2023-01-17T04:06:53.040Z,4.90
2023-01-17T04:07:53.052Z,4.93
2023-01-17T04:08:53.033Z,4.91
2023-01-17T04:09:53.043Z,4.91
2023-01-17T04:10:53.002Z,4.96
2023-01-17T04:11:52.991Z,4.94
2023-01-17T04:12:52.969Z,4.96
2023-01-17T04:13:52.979Z,4.96
2023-01-17T04:14:52.943Z,4.99
2023-01-17T04:15:52.928Z,5.02
2023-01-17T04:16:52.936Z,5.01
2023-01-17T04:17:52.917Z,5.02
2023-01-17T04:18:52.883Z,5.02
2023-01-17T04:19:52.899Z,5.04
2023-01-17T04:20:52.860Z,5.04
2023-01-17T04:21:52.849Z,5.04
2023-01-17T04:22:52.826Z,5.05
2023-01-17T04:23:52.818Z,5.04
2023-01-17T04:24:52.820Z,5.06
2023-01-17T04:25:52.825Z,5.05
2023-01-17T04:26:52.815Z,5.04
2023-01-17T04:27:52.764Z,5.01
2023-01-17T04:28:52.772Z,4.99
2023-01-17T04:29:52.757Z,4.96
2023-01-17T04:30:52.777Z,4.97
2023-01-17T04:31:52.776Z,4.99
2023-01-17T04:32:52.702Z,4.94
2023-01-17T04:33:52.725Z,4.94
2023-01-17T04:34:52.667Z,4.97
2023-01-17T04:35:59.704Z,4.96
2023-01-17T04:36:52.768Z,4.96
2023-01-17T04:37:52.684Z,4.97
2023-01-17T04:38:52.623Z,4.96
2023-01-17T04:39:52.636Z,4.99
2023-01-17T04:40:52.610Z,4.97
2023-01-17T04:41:52.619Z,5.01
2023-01-17T04:42:52.590Z,5.01
2023-01-17T04:43:52.579Z,5.02
2023-01-17T04:44:52.571Z,5.04
2023-01-17T04:45:52.597Z,5.04
2023-01-17T04:46:52.543Z,5.05
2023-01-17T04:47:52.535Z,5.05
2023-01-17T04:48:52.510Z,5.06
2023-01-17T04:49:52.501Z,5.06
2023-01-17T04:50:52.491Z,5.05
2023-01-17T04:51:52.497Z,5.05
2023-01-17T04:52:52.462Z,5.04
2023-01-17T04:53:52.448Z,5.05
2023-01-17T04:54:52.425Z,5.02
2023-01-17T04:55:52.426Z,4.99
2023-01-17T04:56:52.439Z,4.99
2023-01-17T04:57:52.415Z,4.99
2023-01-17T04:58:52.382Z,4.96
2023-01-17T04:59:52.443Z,4.97
2023-01-17T05:00:52.363Z,4.96
2023-01-17T05:01:52.356Z,4.97
2023-01-17T05:02:52.386Z,4.97
2023-01-17T05:03:52.313Z,4.99
2023-01-17T05:04:52.513Z,4.97
2023-01-17T05:05:52.294Z,4.99
2023-01-17T05:06:52.290Z,4.97
2023-01-17T05:07:52.256Z,4.97
2023-01-17T05:08:52.243Z,4.94
2023-01-17T05:09:53.096Z,4.91
2023-01-17T05:10:52.212Z,4.90
2023-01-17T05:11:52.222Z,4.86
2023-01-17T05:12:52.204Z,4.87
2023-01-17T05:13:52.202Z,4.86
2023-01-17T05:14:52.160Z,4.86
2023-01-17T05:15:52.194Z,4.86
2023-01-17T05:16:52.148Z,4.86
2023-01-17T05:17:52.136Z,4.86
2023-01-17T05:18:52.117Z,4.87
2023-01-17T05:19:52.116Z,4.86
2023-01-17T05:20:52.086Z,4.87
2023-01-17T05:21:52.090Z,4.87
2023-01-17T05:22:52.072Z,4.87
2023-01-17T05:23:52.063Z,4.84
2023-01-17T05:24:52.059Z,4.86
2023-01-17T05:25:52.041Z,4.87
2023-01-17T05:26:52.023Z,4.87
2023-01-17T05:27:52.025Z,4.88
2023-01-17T05:28:51.988Z,4.88
2023-01-17T05:29:52.067Z,4.87
2023-01-17T05:30:51.995Z,4.90
2023-01-17T05:31:51.970Z,4.88
2023-01-17T05:32:51.965Z,4.90
2023-01-17T05:33:51.942Z,4.90
2023-01-17T05:34:51.926Z,4.90
2023-01-17T05:35:51.902Z,4.91
2023-01-17T05:36:51.900Z,4.93
2023-01-17T05:37:51.883Z,4.91
2023-01-17T05:38:51.863Z,4.91
2023-01-17T05:39:51.866Z,4.91
2023-01-17T05:40:51.854Z,4.93
2023-01-17T05:41:51.839Z,4.93
2023-01-17T05:42:51.823Z,4.96
2023-01-17T05:43:51.824Z,4.94
2023-01-17T05:44:51.797Z,4.97
2023-01-17T05:45:51.797Z,4.94
2023-01-17T05:46:51.841Z,4.96
2023-01-17T05:47:51.772Z,4.96
2023-01-17T05:48:51.760Z,4.96
2023-01-17T05:49:51.751Z,4.99
2023-01-17T05:50:51.723Z,4.97
2023-01-17T05:51:54.711Z,4.99
2023-01-17T05:52:52.995Z,4.99
2023-01-17T05:53:51.692Z,4.99
2023-01-17T05:54:51.664Z,5.01
2023-01-17T05:55:51.661Z,5.02
2023-01-17T05:56:51.660Z,5.02
2023-01-17T05:57:51.658Z,5.02
2023-01-17T05:58:51.609Z,5.02
2023-01-17T05:59:51.621Z,5.05
2023-01-17T06:00:51.616Z,5.05
2023-01-17T06:01:51.587Z,5.04
2023-01-17T06:02:51.649Z,5.05
2023-01-17T06:03:51.557Z,5.04
2023-01-17T06:04:51.575Z,5.02
2023-01-17T06:05:51.545Z,5.04
2023-01-17T06:06:51.527Z,5.02
2023-01-17T06:07:51.511Z,5.02
2023-01-17T06:08:51.553Z,5.01
2023-01-17T06:09:51.487Z,5.01
2023-01-17T06:10:51.462Z,5.02
2023-01-17T06:11:51.468Z,5.02
2023-01-17T06:12:51.456Z,5.02
2023-01-17T06:13:51.435Z,5.02
2023-01-17T06:14:51.425Z,5.05
2023-01-17T06:15:51.523Z,5.09
2023-01-17T06:16:51.382Z,5.09
2023-01-17T06:17:51.400Z,5.11
2023-01-17T06:18:51.370Z,5.11
2023-01-17T06:19:51.373Z,5.05
2023-01-17T06:20:51.351Z,5.04
2023-01-17T06:21:51.333Z,5.04
2023-01-17T06:22:51.323Z,5.01
2023-01-17T06:23:51.346Z,5.04
2023-01-17T06:24:51.299Z,5.04
2023-01-17T06:25:51.310Z,5.05
2023-01-17T06:26:51.290Z,5.06
2023-01-17T06:27:51.315Z,5.06
2023-01-17T06:28:51.274Z,5.04
2023-01-17T06:29:51.296Z,5.04
2023-01-17T06:30:51.230Z,5.01
2023-01-17T06:31:51.222Z,4.97
2023-01-17T06:32:51.209Z,4.94
2023-01-17T06:33:51.263Z,4.93
2023-01-17T06:34:51.162Z,4.93
2023-01-17T06:35:51.187Z,4.94
2023-01-17T06:36:51.148Z,4.94
2023-01-17T06:37:51.202Z,4.91
2023-01-17T06:38:51.129Z,4.93
2023-01-17T06:39:51.120Z,4.93
2023-01-17T06:40:51.113Z,4.91
2023-01-17T06:41:51.133Z,4.93
2023-01-17T06:42:51.068Z,4.91
2023-01-17T06:43:51.054Z,4.91
2023-01-17T06:44:51.051Z,4.93
2023-01-17T06:45:51.444Z,4.91
2023-01-17T06:46:51.131Z,4.91
2023-01-17T06:47:51.024Z,4.91
2023-01-17T06:48:50.985Z,4.91
2023-01-17T06:49:50.989Z,4.90
2023-01-17T06:50:51.044Z,4.90
2023-01-17T06:51:50.957Z,4.90
2023-01-17T06:52:50.982Z,4.88
2023-01-17T06:53:50.934Z,4.88
2023-01-17T06:54:50.914Z,4.90
2023-01-17T06:55:50.918Z,4.88
2023-01-17T06:56:50.896Z,4.90
2023-01-17T06:57:50.927Z,4.88
2023-01-17T06:58:51.005Z,4.90
2023-01-17T06:59:50.892Z,4.88
2023-01-17T07:00:50.938Z,5.05
2023-01-17T07:01:50.903Z,5.15
2023-01-17T07:02:50.837Z,5.27
2023-01-17T07:03:50.847Z,5.19
2023-01-17T07:04:50.791Z,5.08
2023-01-17T07:05:50.802Z,5.04
2023-01-17T07:06:50.773Z,4.97
2023-01-17T07:07:50.772Z,4.96
2023-01-17T07:08:50.738Z,4.99
2023-01-17T07:09:50.741Z,4.99
2023-01-17T07:10:50.724Z,5.01
2023-01-17T07:11:50.754Z,5.06
2023-01-17T07:12:50.723Z,5.05
2023-01-17T07:13:50.746Z,4.99
2023-01-17T07:14:50.689Z,4.97
2023-01-17T07:15:50.699Z,4.93
2023-01-17T07:16:50.650Z,4.93
2023-01-17T07:17:50.646Z,4.93
2023-01-17T07:18:50.621Z,4.91
2023-01-17T07:19:50.619Z,4.91
2023-01-17T07:20:50.604Z,4.91
2023-01-17T07:21:50.586Z,4.90
2023-01-17T07:22:50.568Z,4.90
2023-01-17T07:23:50.558Z,4.88
2023-01-17T07:24:50.545Z,4.88
2023-01-17T07:25:50.529Z,4.88
2023-01-17T07:26:50.517Z,4.87
2023-01-17T07:27:50.515Z,4.86
2023-01-17T07:28:50.491Z,4.86
2023-01-17T07:29:51.161Z,4.86
2023-01-17T07:30:50.464Z,4.83
2023-01-17T07:31:50.463Z,4.84
2023-01-17T07:32:50.433Z,4.83
2023-01-17T07:33:50.435Z,4.80
2023-01-17T07:34:50.403Z,4.83
2023-01-17T07:35:50.403Z,4.80
2023-01-17T07:36:50.392Z,4.80
2023-01-17T07:37:50.393Z,4.79
2023-01-17T07:38:50.374Z,4.79
2023-01-17T07:39:50.363Z,4.77
2023-01-17T07:40:50.345Z,4.80
2023-01-17T07:41:50.350Z,4.79
2023-01-17T07:42:50.332Z,4.79
2023-01-17T07:43:50.308Z,4.80
2023-01-17T07:44:50.501Z,4.80
2023-01-17T07:45:50.367Z,4.79
2023-01-17T07:46:50.354Z,4.79
2023-01-17T07:47:50.367Z,4.79
2023-01-17T07:48:50.309Z,4.79
2023-01-17T07:49:50.243Z,4.80
2023-01-17T07:50:50.241Z,4.79
2023-01-17T07:51:50.228Z,4.80
2023-01-17T07:52:50.223Z,4.83
2023-01-17T07:53:50.221Z,4.84
2023-01-17T07:54:50.177Z,4.84
2023-01-17T07:55:50.165Z,4.84
2023-01-17T07:56:50.156Z,4.84
2023-01-17T07:57:50.228Z,4.86
2023-01-17T07:58:50.288Z,4.84
2023-01-17T07:59:50.100Z,4.86
2023-01-17T08:00:50.232Z,4.83
2023-01-17T08:01:50.185Z,4.83
2023-01-17T08:02:50.097Z,4.83
2023-01-17T08:03:50.132Z,4.80
2023-01-17T08:04:50.150Z,4.79
2023-01-17T08:05:50.032Z,4.83
2023-01-17T08:06:50.036Z,4.84
2023-01-17T08:07:50.015Z,4.88
2023-01-17T08:08:50.021Z,4.90
2023-01-17T08:09:50.004Z,4.91
2023-01-17T08:10:49.965Z,4.93
2023-01-17T08:11:49.965Z,4.93
2023-01-17T08:12:50.000Z,4.94
2023-01-17T08:13:49.940Z,4.94
2023-01-17T08:14:50.150Z,4.94
2023-01-17T08:15:49.913Z,4.96
2023-01-17T08:16:49.930Z,4.97
2023-01-17T08:17:49.880Z,4.97
2023-01-17T08:18:49.891Z,4.97
2023-01-17T08:19:49.859Z,5.01
2023-01-17T08:20:49.849Z,5.01
2023-01-17T08:21:49.821Z,5.02
2023-01-17T08:22:49.913Z,5.01
2023-01-17T08:23:49.814Z,5.01
2023-01-17T08:24:49.803Z,5.01
2023-01-17T08:25:49.786Z,5.02
2023-01-17T08:26:49.795Z,5.05
2023-01-17T08:27:49.784Z,5.02
2023-01-17T08:28:49.787Z,5.04
2023-01-17T08:29:49.994Z,5.06
2023-01-17T08:30:49.747Z,5.05
2023-01-17T08:31:49.765Z,5.05
2023-01-17T08:32:49.697Z,5.05
2023-01-17T08:33:49.689Z,5.06
2023-01-17T08:34:49.688Z,5.08
2023-01-17T08:35:49.657Z,5.09
2023-01-17T08:36:49.650Z,5.12
2023-01-17T08:37:49.746Z,5.12
2023-01-17T08:38:49.681Z,5.12
2023-01-17T08:39:49.607Z,5.17
2023-01-17T08:40:49.628Z,5.15
2023-01-17T08:41:49.701Z,5.15
2023-01-17T08:42:49.585Z,5.14
2023-01-17T08:43:49.592Z,5.14
2023-01-17T08:44:49.630Z,5.15
2023-01-17T08:45:49.612Z,5.17
2023-01-17T08:46:49.533Z,5.17
2023-01-17T08:47:49.673Z,5.20
2023-01-17T08:48:49.494Z,5.17
2023-01-17T08:49:49.499Z,5.19
2023-01-17T08:50:49.464Z,5.17
2023-01-17T08:51:49.445Z,5.17
2023-01-17T08:52:49.447Z,5.19
2023-01-17T08:53:49.476Z,5.19
2023-01-17T08:54:49.411Z,5.22
2023-01-17T08:55:49.421Z,5.19
2023-01-17T08:56:49.401Z,5.19
2023-01-17T08:57:49.557Z,5.17
2023-01-17T08:58:49.387Z,5.19
2023-01-17T08:59:49.368Z,5.19
2023-01-17T09:00:49.490Z,5.20
2023-01-17T09:01:49.543Z,5.20
2023-01-17T09:02:49.436Z,5.20
2023-01-17T09:03:49.494Z,5.22
2023-01-17T09:04:49.318Z,5.22
2023-01-17T09:05:49.353Z,5.22
2023-01-17T09:06:49.306Z,5.22
2023-01-17T09:07:50.209Z,5.19
2023-01-17T09:08:49.239Z,5.12
2023-01-17T09:09:49.277Z,5.14
2023-01-17T09:10:49.266Z,5.12
2023-01-17T09:11:49.252Z,5.14
2023-01-17T09:12:49.207Z,5.15
2023-01-17T09:13:49.181Z,5.15
2023-01-17T09:14:49.168Z,5.17
2023-01-17T09:15:49.176Z,5.22
2023-01-17T09:16:49.171Z,5.24
2023-01-17T09:17:49.120Z,5.26
2023-01-17T09:18:49.124Z,5.26
2023-01-17T09:19:49.108Z,5.24
2023-01-17T09:20:49.108Z,5.27
2023-01-17T09:21:49.085Z,5.32
2023-01-17T09:22:49.207Z,5.30
2023-01-17T09:23:49.073Z,5.29
2023-01-17T09:24:49.076Z,5.27
2023-01-17T09:25:49.017Z,5.27
2023-01-17T09:26:49.089Z,5.29
2023-01-17T09:27:49.089Z,5.32
2023-01-17T09:28:49.019Z,5.32
2023-01-17T09:29:48.983Z,5.35
2023-01-17T09:30:49.048Z,5.37
2023-01-17T09:31:48.950Z,5.35
2023-01-17T09:32:48.962Z,5.37
2023-01-17T09:33:48.932Z,5.38
2023-01-17T09:34:48.920Z,5.38
2023-01-17T09:35:49.094Z,5.38
2023-01-17T09:36:48.950Z,5.40
2023-01-17T09:37:48.901Z,5.41
2023-01-17T09:38:49.063Z,5.41
2023-01-17T09:39:48.869Z,5.42
2023-01-17T09:40:48.997Z,5.41
2023-01-17T09:41:48.824Z,5.40
2023-01-17T09:42:48.823Z,5.35
2023-01-17T09:43:48.821Z,5.30
2023-01-17T09:44:48.825Z,5.27
2023-01-17T09:45:48.840Z,5.27
2023-01-17T09:46:48.761Z,5.27
2023-01-17T09:47:48.777Z,5.27
2023-01-17T09:48:48.738Z,5.24
2023-01-17T09:49:48.729Z,5.17
2023-01-17T09:50:48.729Z,5.19
2023-01-17T09:51:48.698Z,5.14
2023-01-17T09:52:48.696Z,5.12
2023-01-17T09:53:48.669Z,5.14
2023-01-17T09:54:48.673Z,5.17
2023-01-17T09:55:48.834Z,5.22
2023-01-17T09:56:48.705Z,5.30
2023-01-17T09:57:48.675Z,5.35
2023-01-17T09:58:48.652Z,5.30
2023-01-17T10:00:02.407Z,5.29
2023-01-17T10:00:49.659Z,5.29
2023-01-17T10:01:48.852Z,5.30
2023-01-17T10:02:48.757Z,5.30
2023-01-17T10:03:48.740Z,5.29
2023-01-17T10:04:48.557Z,5.27
2023-01-17T10:05:48.676Z,5.26
2023-01-17T10:06:48.535Z,5.24
2023-01-17T10:07:48.542Z,5.26
2023-01-17T10:08:48.504Z,5.22
2023-01-17T10:09:48.609Z,5.19
2023-01-17T10:10:48.667Z,5.19
2023-01-17T10:11:48.462Z,5.20
2023-01-17T10:12:48.448Z,5.20
2023-01-17T10:13:48.418Z,5.19
2023-01-17T10:14:48.426Z,5.15
2023-01-17T10:15:48.418Z,5.17
2023-01-17T10:16:48.448Z,5.17
2023-01-17T10:17:48.377Z,5.24
2023-01-17T10:18:48.385Z,5.32
2023-01-17T10:19:48.364Z,5.33
2023-01-17T10:20:48.511Z,5.35
2023-01-17T10:21:48.330Z,5.24
2023-01-17T10:22:48.347Z,5.22
2023-01-17T10:23:48.296Z,5.14
2023-01-17T10:24:48.287Z,5.06
2023-01-17T10:25:48.270Z,5.02
2023-01-17T10:26:48.269Z,4.96
2023-01-17T10:27:48.260Z,4.91
2023-01-17T10:28:48.243Z,4.90
2023-01-17T10:29:48.335Z,4.86
2023-01-17T10:30:48.427Z,4.80
2023-01-17T10:31:48.213Z,4.80
2023-01-17T10:32:48.379Z,4.79
2023-01-17T10:33:48.273Z,4.79
2023-01-17T10:34:48.188Z,4.80
2023-01-17T10:35:48.157Z,4.79
2023-01-17T10:36:48.154Z,4.77
2023-01-17T10:37:48.365Z,4.72
2023-01-17T10:38:48.190Z,4.77
2023-01-17T10:39:48.126Z,4.79
2023-01-17T10:40:48.155Z,4.80
2023-01-17T10:41:48.080Z,4.77
2023-01-17T10:42:48.984Z,4.75
2023-01-17T10:43:48.056Z,4.80
2023-01-17T10:44:48.034Z,4.84
2023-01-17T10:45:48.082Z,4.88
2023-01-17T10:46:48.024Z,4.88
2023-01-17T10:47:48.002Z,4.87
2023-01-17T10:48:48.020Z,4.84
2023-01-17T10:49:48.022Z,4.88
2023-01-17T10:50:48.071Z,4.93
2023-01-17T10:51:48.154Z,4.93
2023-01-17T10:52:47.972Z,4.96
2023-01-17T10:53:47.962Z,4.94
2023-01-17T10:54:47.933Z,4.93
2023-01-17T10:55:47.898Z,4.97
2023-01-17T10:56:48.600Z,4.94
2023-01-17T10:57:47.904Z,4.94
2023-01-17T10:58:47.869Z,4.94
2023-01-17T10:59:47.851Z,4.90
2023-01-17T11:00:47.941Z,4.83
2023-01-17T11:01:50.303Z,4.69
2023-01-17T11:02:47.846Z,4.62
2023-01-17T11:03:47.789Z,4.56
2023-01-17T11:04:47.797Z,4.50
2023-01-17T11:05:47.778Z,4.47
2023-01-17T11:06:57.758Z,4.47
2023-01-17T11:07:49.087Z,4.46
2023-01-17T11:08:47.749Z,4.46
2023-01-17T11:09:47.738Z,4.46
2023-01-17T11:10:47.745Z,4.47
2023-01-17T11:11:47.707Z,4.46
2023-01-17T11:12:47.743Z,4.47
2023-01-17T11:13:47.816Z,4.44
2023-01-17T11:14:47.676Z,4.44
2023-01-17T11:15:47.687Z,4.43
2023-01-17T11:16:47.686Z,4.38
2023-01-17T11:17:47.673Z,4.38
2023-01-17T11:18:47.650Z,4.38
2023-01-17T11:19:47.604Z,4.36
2023-01-17T11:20:47.586Z,4.31
2023-01-17T11:21:47.593Z,4.25
2023-01-17T11:22:47.581Z,4.14
2023-01-17T11:23:47.552Z,4.10
2023-01-17T11:24:47.543Z,4.08
2023-01-17T11:25:47.522Z,4.06
2023-01-17T11:26:47.531Z,3.99
2023-01-17T11:27:47.883Z,3.90
2023-01-17T11:28:47.526Z,3.88
2023-01-17T11:29:47.487Z,3.81
2023-01-17T11:30:47.495Z,3.77
2023-01-17T11:31:48.166Z,3.74
2023-01-17T11:32:47.499Z,3.72
2023-01-17T11:33:47.428Z,3.68
2023-01-17T11:34:47.430Z,3.67
2023-01-17T11:35:47.401Z,3.68
2023-01-17T11:36:47.403Z,3.64
2023-01-17T11:37:47.389Z,3.64
2023-01-17T11:38:47.420Z,3.68
2023-01-17T11:39:47.368Z,3.67
2023-01-17T11:40:47.369Z,3.63
2023-01-17T11:41:47.351Z,3.60
2023-01-17T11:42:47.344Z,3.52
2023-01-17T11:43:47.310Z,3.46
2023-01-17T11:44:47.298Z,3.46
2023-01-17T11:45:47.274Z,3.46
2023-01-17T11:46:47.257Z,3.49
2023-01-17T11:47:47.250Z,3.52
2023-01-17T11:48:47.242Z,3.52
2023-01-17T11:49:47.214Z,3.52
2023-01-17T11:50:47.216Z,3.53
2023-01-17T11:51:47.298Z,3.59
2023-01-17T11:52:47.487Z,3.62
2023-01-17T11:53:47.203Z,3.57
2023-01-17T11:54:47.157Z,3.57
2023-01-17T11:55:47.156Z,3.62
2023-01-17T11:56:47.713Z,3.62
2023-01-17T11:57:47.170Z,3.63
2023-01-17T11:58:47.476Z,3.62
2023-01-17T11:59:47.137Z,3.62
2023-01-17T12:00:47.131Z,3.57
2023-01-17T12:01:47.171Z,3.59
2023-01-17T12:02:47.103Z,3.57
2023-01-17T12:03:47.064Z,3.59
2023-01-17T12:04:47.200Z,3.62
2023-01-17T12:05:47.057Z,3.68
2023-01-17T12:06:57.231Z,3.75
2023-01-17T12:07:48.033Z,3.80
2023-01-17T12:08:46.991Z,3.89
2023-01-17T12:09:46.993Z,3.99
2023-01-17T12:10:46.961Z,4.10
2023-01-17T12:11:46.982Z,4.20
2023-01-17T12:12:46.966Z,4.26
2023-01-17T12:13:46.945Z,4.34
2023-01-17T12:14:46.911Z,4.38
2023-01-17T12:15:46.969Z,4.42
2023-01-17T12:16:46.883Z,4.42
2023-01-17T12:17:46.929Z,4.44
2023-01-17T12:18:47.042Z,4.46
2023-01-17T12:19:46.850Z,4.46
2023-01-17T12:20:46.856Z,4.51
2023-01-17T12:21:46.861Z,4.53
2023-01-17T12:22:46.818Z,4.53
2023-01-17T12:23:46.832Z,4.51
2023-01-17T12:24:46.796Z,4.54
2023-01-17T12:25:46.778Z,4.53
2023-01-17T12:26:46.857Z,4.54
2023-01-17T12:27:46.980Z,4.53
2023-01-17T12:28:46.837Z,4.56
2023-01-17T12:29:46.781Z,4.57
2023-01-17T12:30:46.924Z,4.61
2023-01-17T12:31:46.702Z,4.54
2023-01-17T12:32:46.699Z,4.53
2023-01-17T12:33:46.696Z,4.51
2023-01-17T12:34:46.673Z,4.54
2023-01-17T12:35:46.675Z,4.53
2023-01-17T12:36:48.506Z,4.57
2023-01-17T12:37:49.436Z,4.62
2023-01-17T12:38:47.599Z,4.68
2023-01-17T12:39:46.604Z,4.69
2023-01-17T12:40:46.609Z,4.71
2023-01-17T12:41:46.583Z,4.74
2023-01-17T12:42:48.708Z,4.75
2023-01-17T12:43:46.564Z,4.79
2023-01-17T12:44:46.611Z,4.77
2023-01-17T12:45:46.619Z,4.83
2023-01-17T12:46:46.571Z,4.79
2023-01-17T12:47:46.503Z,4.79
2023-01-17T12:48:46.622Z,4.75
2023-01-17T12:49:46.512Z,4.72
2023-01-17T12:50:46.488Z,4.69
2023-01-17T12:51:47.466Z,4.67
2023-01-17T12:52:46.509Z,4.62
2023-01-17T12:53:46.437Z,4.61
2023-01-17T12:54:46.460Z,4.61
2023-01-17T12:55:46.408Z,4.57
2023-01-17T12:56:46.371Z,4.57
2023-01-17T12:57:46.377Z,4.57
2023-01-17T12:58:46.363Z,4.59
2023-01-17T12:59:46.366Z,4.61
2023-01-17T13:00:46.508Z,4.59
2023-01-17T13:01:46.423Z,4.64
2023-01-17T13:02:46.381Z,4.90
2023-01-17T13:03:46.407Z,4.96
2023-01-17T13:04:58.128Z,4.86
2023-01-17T13:05:47.330Z,4.77
2023-01-17T13:06:46.293Z,4.69
2023-01-17T13:07:46.283Z,4.71
2023-01-17T13:08:46.243Z,4.68
2023-01-17T13:09:46.392Z,4.69
2023-01-17T13:10:46.198Z,4.68
2023-01-17T13:11:46.219Z,4.68
2023-01-17T13:12:46.177Z,4.67
2023-01-17T13:13:46.188Z,4.65
2023-01-17T13:14:46.238Z,4.65
2023-01-17T13:15:46.246Z,4.64
2023-01-17T13:16:46.115Z,4.64
2023-01-17T13:17:46.147Z,4.62
2023-01-17T13:18:46.124Z,4.64